Time;durP1;ratioP1;P1;durP2;ratioP2;P2;SDS_P1;SDS_P2;PMS_P1;PMS_P2;Temp;Humidity;BMP_temperature;BMP_pressure;BME280_temperature;BME280_humidity;BME280_pressure;Samples;Min_cycle;Max_cycle;Signal;HPM_P1;HPM_P2
2024/01/12 04:28:00;;;;;;;6.57;4.27;;;;;;;;;;5918923;22;7955481;-84
2024/01/12 04:30:27;;;;;;;2.70;2.43;;;;;;;;;;6222442;23;20688;-84
2024/01/12 04:33:02;;;;;;;2.87;2.17;;;;;;;;;;6223362;23;20170;-85
2024/01/12 04:35:41;;;;;;;3.53;2.23;;;;;;;;;;6222050;23;20279;-84
2024/01/12 04:38:23;;;;;;;2.60;1.70;;;;;;;;;;6221922;23;20605;-83
2024/01/12 04:40:56;;;;;;;3.63;1.90;;;;;;;;;;6222535;23;20698;-84
2024/01/12 04:43:25;;;;;;;3.60;3.03;;;;;;;;;;6222431;23;20273;-83
2024/01/12 04:48:13;;;;;;;2.87;2.60;;;;;;;-146.24;87.58;47210.97;5091365;27;20612;-83
2024/01/12 04:51:02;;;;;;;;;;;;;;;;;;;;;
2024/01/12 04:53:31;;;;;;;7.30;3.03;;;;;;;-146.24;88.32;47163.00;5070590;28;20198;-85
2024/01/12 04:56:02;;;;;;;5.20;2.30;;;;;;;-146.24;88.32;47151.50;5071380;28;20229;-85
2024/01/12 04:58:38;;;;;;;4.77;2.57;;;;;;;-146.24;87.83;47276.22;5068633;28;20207;-84
2024/01/12 05:04:13;;;;;;;2.63;2.10;;;;;;;-146.24;88.95;47164.94;5068256;28;20719;-84
2024/01/12 05:06:42;;;;;;;11.53;4.57;;;;;;;-146.24;89.58;47205.22;5068185;28;20230;-84
2024/01/12 05:09:18;;;;;;;4.03;3.23;;;;;;;-146.24;90.33;47205.22;5055881;28;20219;-84
2024/01/12 05:12:31;;;;;;;;;;;;;;;;;;;;;
2024/01/12 05:15:07;;;;;;;14.83;4.93;;;;;;;-146.24;93.33;47308.81;4928672;29;20199;-85
2024/01/12 05:17:53;;;;;;;8.80;5.03;;;;;;;-146.24;94.34;47212.88;5030780;28;20203;-84
2024/01/12 05:20:33;;;;;;;7.23;4.73;;;;;;;-146.24;93.86;47184.09;5048860;28;20221;-84
2024/01/12 05:23:03;;;;;;;10.70;3.70;;;;;;;-146.24;94.41;47209.06;5049150;28;20195;-86
2024/01/12 05:25:39;;;;;;;5.70;3.10;;;;;;;-146.24;93.95;47243.59;5048931;28;20565;-83
2024/01/12 05:28:27;;;;;;;4.20;3.40;;;;;;;-146.24;94.75;47255.09;5047767;28;20194;-86
2024/01/12 05:31:18;;;;;;;6.33;3.53;;;;;;;-146.24;95.40;47159.16;5048377;28;20199;-84
2024/01/12 05:33:59;;;;;;;3.43;2.73;;;;;;;-146.24;95.09;47258.94;5048681;28;20317;-84
2024/01/12 05:36:38;;;;;;;3.73;2.97;;;;;;;-146.24;94.71;47203.28;5048445;28;20710;-84
2024/01/12 05:39:21;;;;;;;5.43;3.53;;;;;;;-146.24;94.38;47201.38;5048906;28;20223;-83
2024/01/12 05:41:55;;;;;;;3.60;2.73;;;;;;;-146.24;95.54;47228.25;5048023;28;20191;-84
2024/01/12 05:44:27;;;;;;;5.33;3.43;;;;;;;-146.24;95.67;47214.81;5047781;28;20206;-84
2024/01/12 05:46:56;;;;;;;5.63;4.17;;;;;;;-146.24;97.33;47251.25;5047649;28;20245;-84
2024/01/12 05:49:25;;;;;;;8.07;4.07;;;;;;;-146.24;97.54;47180.28;5044141;28;20680;-84
2024/01/12 05:51:56;;;;;;;9.50;4.67;;;;;;;-146.24;98.85;47228.25;5047769;28;20227;-84
2024/01/12 05:54:26;;;;;;;8.23;5.07;;;;;;;-146.24;99.11;47207.13;5048146;28;20207;-86
2024/01/12 05:57:09;;;;;;;5.23;4.40;;;;;;;-146.24;99.26;47166.84;5044678;28;20211;-85
2024/01/12 05:59:53;;;;;;;10.83;6.40;;;;;;;-146.24;99.82;47182.19;5045842;28;20200;-83
2024/01/12 06:02:39;;;;;;;7.00;4.50;;;;;;;-146.24;99.71;47232.06;5046901;28;20200;-83
2024/01/12 06:05:08;;;;;;;14.53;6.00;;;;;;;-146.24;99.95;47262.78;5045959;28;20563;-84
2024/01/12 06:07:50;;;;;;;6.10;4.50;;;;;;;-146.24;100.00;47280.03;5043786;28;20601;-84
2024/01/12 06:10:22;;;;;;;9.33;6.23;;;;;;;-146.24;99.86;47193.69;5045924;28;20212;-86
2024/01/12 06:12:53;;;;;;;5.57;4.53;;;;;;;-146.24;99.50;47170.69;5050513;28;20556;-84
2024/01/12 06:15:22;;;;;;;16.27;5.70;;;;;;;-146.24;99.66;47237.84;5053892;28;20200;-84
2024/01/12 06:17:57;;;;;;;13.27;6.10;;;;;;;-146.24;99.91;47174.53;5053717;28;20672;-85
2024/01/12 06:20:40;;;;;;;4.23;2.40;;;;;;;-146.24;98.65;47241.66;5031028;28;20200;-84
2024/01/12 06:23:14;;;;;;;2.50;2.30;;;;;;;-146.24;92.16;47182.19;5025536;28;20224;-83
2024/01/12 06:26:10;;;;;;;6.17;4.07;;;;;;;-146.24;84.80;47090.09;5031680;28;20282;-84
2024/01/12 06:28:58;;;;;;;5.20;3.63;;;;;;;-146.24;75.90;47178.34;5037806;28;20261;-83
2024/01/12 06:44:10;;;;;;;12.60;5.93;;;;;;;-146.24;70.07;47172.59;5066069;28;20510;-84
2024/01/12 06:46:43;;;;;;;8.73;5.07;;;;;;;-146.24;70.44;47149.56;5060133;28;20199;-85
2024/01/12 06:49:11;;;;;;;4.50;3.47;;;;;;;-146.24;70.39;47141.91;5055658;28;20278;-85
2024/01/12 06:51:42;;;;;;;4.53;3.17;;;;;;;-146.24;70.16;47157.25;5068555;28;20683;-83
2024/01/12 06:54:12;;;;;;;7.07;4.97;;;;;;;-146.24;72.03;47226.31;5069097;28;20531;-84
2024/01/12 06:56:41;;;;;;;5.43;2.40;;;;;;;-146.24;71.67;47172.59;5068540;28;20199;-84
2024/01/12 06:59:11;;;;;;;5.07;2.27;;;;;;;-146.24;69.85;47168.75;5068146;28;20204;-83
2024/01/12 07:01:39;;;;;;;4.67;2.83;;;;;;;-146.24;67.98;47153.41;5069005;28;20256;-84
2024/01/12 07:04:08;;;;;;;1.93;1.83;;;;;;;-146.24;65.58;47115.03;5067556;28;20201;-84
2024/01/12 07:06:40;;;;;;;7.40;4.33;;;;;;;-146.24;63.89;47138.06;5065919;28;20199;-84
2024/01/12 07:09:12;;;;;;;5.93;3.90;;;;;;;-146.24;59.55;47111.19;5063468;28;20222;-85
2024/01/12 07:11:43;;;;;;;6.50;3.80;;;;;;;-146.24;57.89;47080.50;5061714;28;20264;-84
2024/01/12 07:14:18;;;;;;;9.27;4.73;;;;;;;-146.24;54.59;47067.06;5071631;28;20207;-84
2024/01/12 07:16:46;;;;;;;8.07;4.10;;;;;;;-146.24;50.93;47019.09;5078151;28;20199;-84
2024/01/12 07:19:14;;;;;;;10.73;4.13;;;;;;;-146.24;53.07;47178.34;5085175;28;20211;-85
2024/01/12 07:21:41;;;;;;;8.93;4.53;;;;;;;-146.24;53.07;47178.34;5072258;28;20215;-84
2024/01/12 07:24:11;;;;;;;6.27;4.10;;;;;;;-146.24;53.83;47116.97;5080402;28;20238;-84
2024/01/12 07:26:46;;;;;;;8.07;4.47;;;;;;;-146.24;52.07;47174.53;5066640;28;20215;-86
2024/01/12 07:29:22;;;;;;;10.47;4.07;;;;;;;-146.24;51.32;47070.91;5061191;28;20209;-85
2024/01/12 07:31:50;;;;;;;6.30;3.57;;;;;;;-146.24;53.86;47078.59;5062398;28;20227;-84
2024/01/12 07:34:20;;;;;;;7.00;3.73;;;;;;;-146.24;56.95;47132.31;5076709;28;20191;-85
2024/01/12 07:36:47;;;;;;;8.30;4.80;;;;;;;-146.24;55.99;47097.78;5070268;28;20198;-84
2024/01/12 07:39:14;;;;;;;7.93;4.57;;;;;;;-146.24;54.56;47084.34;5082350;28;20212;-84
2024/01/12 07:41:43;;;;;;;9.03;4.87;;;;;;;-146.24;54.51;47061.31;5065457;28;20195;-85
2024/01/12 07:44:12;;;;;;;8.57;4.47;;;;;;;-146.24;52.42;47049.81;5044592;28;20214;-86
2024/01/12 07:46:42;;;;;;;11.63;5.37;;;;;;;-146.24;49.87;47097.78;5041122;28;20241;-84
2024/01/12 07:49:15;;;;;;;11.70;6.00;;;;;;;-146.24;49.09;47122.72;5041419;28;20200;-83
2024/01/12 07:51:56;;;;;;;9.60;5.97;;;;;;;-146.24;47.35;47063.22;5041601;28;20227;-86
2024/01/12 07:54:39;;;;;;;13.60;5.50;;;;;;;-146.24;44.75;47088.19;5038188;28;20261;-84
2024/01/12 07:57:14;;;;;;;11.57;6.10;;;;;;;-146.24;45.16;47001.84;5038493;28;20208;-84
2024/01/12 07:59:50;;;;;;;11.83;6.43;;;;;;;-146.24;44.97;47036.38;5045781;28;20229;-84
2024/01/12 08:02:27;;;;;;;12.57;5.43;;;;;;;-146.24;44.08;46992.25;5047288;28;20282;-84
2024/01/12 08:04:58;;;;;;;6.73;5.07;;;;;;;-146.24;42.01;46986.50;5063158;28;20210;-85
2024/01/12 08:07:34;;;;;;;11.07;5.63;;;;;;;-146.24;45.23;47136.16;5037975;28;20239;-84
2024/01/12 08:10:03;;;;;;;7.57;4.43;;;;;;;-146.24;49.73;47101.59;5035293;28;20226;-84
2024/01/12 08:12:34;;;;;;;7.70;5.33;;;;;;;-146.24;55.10;47090.09;5034298;28;20299;-85
2024/01/12 08:15:08;;;;;;;4.23;3.43;;;;;;;-146.24;57.25;47207.13;5047856;28;20659;-85
2024/01/12 08:17:47;;;;;;;6.80;4.30;;;;;;;-146.24;58.23;47178.34;5050738;28;20231;-86
2024/01/12 08:20:23;;;;;;;8.53;4.53;;;;;;;-146.24;58.10;47067.06;5034529;28;20584;-85
2024/01/12 08:23:24;;;;;;;11.50;5.53;;;;;;;-146.24;57.24;47022.94;5033583;28;20224;-85
2024/01/12 08:25:52;;;;;;;11.83;4.47;;;;;;;-146.24;57.70;47186.03;5049035;28;20322;-84
2024/01/12 08:28:24;;;;;;;10.17;5.43;;;;;;;-146.24;58.01;47115.03;5042060;28;20314;-86
2024/01/12 08:30:51;;;;;;;11.70;6.13;;;;;;;-146.24;57.19;47078.59;5032667;28;20227;-86
2024/01/12 08:33:26;;;;;;;9.20;5.53;;;;;;;-146.24;55.79;47057.47;5045156;28;20285;-85
2024/01/12 08:35:58;;;;;;;11.80;6.47;;;;;;;-146.24;55.24;47049.81;5040527;28;20371;-85
2024/01/12 08:38:40;;;;;;;12.50;6.43;;;;;;;-146.24;54.13;47055.56;5044159;28;20620;-84
2024/01/12 08:41:10;;;;;;;22.43;7.80;;;;;;;-146.24;54.97;47092.00;5044133;28;20227;-85
2024/01/12 08:43:39;;;;;;;20.70;6.90;;;;;;;-146.24;58.82;47195.63;5031228;28;20235;-85
2024/01/12 08:46:10;;;;;;;13.57;5.67;;;;;;;-146.24;57.50;47080.50;5036570;28;20227;-85
2024/01/12 08:48:41;;;;;;;9.50;5.30;;;;;;;-146.24;57.52;47082.41;5041412;28;20230;-85
2024/01/12 08:51:10;;;;;;;17.03;5.87;;;;;;;-146.24;59.24;47072.81;5046820;28;20228;-85
2024/01/12 08:53:41;;;;;;;14.33;7.13;;;;;;;-146.24;63.06;47092.00;5031680;28;20323;-85
2024/01/12 08:56:19;;;;;;;14.33;6.20;;;;;;;-146.24;65.25;47197.53;5029894;28;20255;-83
2024/01/12 08:58:51;;;;;;;17.23;7.53;;;;;;;-146.24;66.69;47143.81;5031293;28;20357;-84
2024/01/12 09:01:32;;;;;;;17.37;8.17;;;;;;;-146.24;67.41;47109.28;5031596;28;20238;-83
2024/01/12 09:04:03;;;;;;;17.73;6.67;;;;;;;-146.24;68.25;47138.06;5032353;28;20240;-84
2024/01/12 09:06:31;;;;;;;19.43;8.37;;;;;;;-146.24;65.67;47139.97;5034147;28;20230;-85
2024/01/12 09:09:04;;;;;;;17.93;7.10;;;;;;;-146.24;64.48;47118.88;5032432;28;20619;-84
2024/01/12 09:11:34;;;;;;;20.53;6.03;;;;;;;-146.24;62.82;47082.41;5032008;28;20388;-84
2024/01/12 09:14:02;;;;;;;16.77;7.63;;;;;;;-146.24;61.63;47093.94;5030768;28;20231;-84
2024/01/12 09:16:31;;;;;;;10.20;7.07;;;;;;;-146.24;66.14;47080.50;5031975;28;20228;-85
2024/01/12 09:18:59;;;;;;;12.13;5.50;;;;;;;-146.24;67.88;47099.69;5031438;28;20662;-84
2024/01/12 09:21:29;;;;;;;15.43;8.93;;;;;;;-146.24;69.69;47067.06;5034133;28;20635;-84
2024/01/12 09:23:59;;;;;;;20.87;9.13;;;;;;;-146.24;68.93;47147.66;5052227;28;20223;-84
2024/01/12 09:26:29;;;;;;;12.80;6.80;;;;;;;-146.24;68.88;47103.53;5051834;28;20220;-84
2024/01/12 09:28:57;;;;;;;11.17;6.23;;;;;;;-146.24;69.92;47128.47;5054239;28;20234;-84
2024/01/12 09:31:26;;;;;;;12.27;5.60;;;;;;;-146.24;70.79;47147.66;5051935;28;20227;-84
2024/01/12 09:33:54;;;;;;;15.93;5.77;;;;;;;-146.24;73.42;47072.81;5052810;28;20243;-84
2024/01/12 09:36:24;;;;;;;8.93;5.20;;;;;;;-146.24;74.01;47141.91;5051486;28;20276;-85
2024/01/12 09:38:55;;;;;;;16.73;7.10;;;;;;;-146.24;72.89;47128.47;5053961;28;20223;-84
2024/01/12 09:41:33;;;;;;;12.97;6.23;;;;;;;-146.24;71.58;47061.31;5053175;28;20669;-85
2024/01/12 09:44:07;;;;;;;21.23;7.20;;;;;;;-146.24;69.50;47080.50;5057062;28;20302;-85
2024/01/12 09:46:45;;;;;;;20.83;6.47;;;;;;;-146.24;68.38;47139.97;5052288;28;20284;-85
2024/01/12 09:49:12;;;;;;;15.03;5.83;;;;;;;-146.24;69.49;47084.34;5051826;28;20305;-85
2024/01/12 09:51:40;;;;;;;9.00;5.10;;;;;;;-146.24;71.60;47113.13;5048532;28;20238;-84
2024/01/12 09:54:09;;;;;;;21.50;7.70;;;;;;;-146.24;69.50;47191.78;5032058;28;20247;-85
2024/01/12 09:56:42;;;;;;;18.30;7.27;;;;;;;-146.24;68.79;47186.03;5031975;28;20274;-87
2024/01/12 09:59:10;;;;;;;11.87;5.00;;;;;;;-146.24;71.17;47097.78;5046871;28;20224;-86
2024/01/12 10:01:42;;;;;;;16.23;7.30;;;;;;;-146.24;74.31;47163.00;5036150;28;20232;-86
2024/01/12 10:04:12;;;;;;;11.23;6.83;;;;;;;-146.24;75.57;47138.06;5031086;28;20322;-84
2024/01/12 10:06:41;;;;;;;4.83;4.07;;;;;;;-146.24;73.78;47132.31;5032055;28;20292;-85
2024/01/12 10:09:11;;;;;;;13.13;6.73;;;;;;;-146.24;75.54;47080.50;5034779;28;20487;-85
2024/01/12 10:11:44;;;;;;;12.77;7.00;;;;;;;-146.24;74.44;47111.19;5034278;28;20318;-84
2024/01/12 10:14:13;;;;;;;11.87;5.47;;;;;;;-146.24;73.62;47095.84;5032715;28;20320;-84
2024/01/12 10:16:41;;;;;;;15.33;5.83;;;;;;;-146.24;75.02;47224.41;5004526;28;20215;-84
2024/01/12 10:19:08;;;;;;;10.73;5.67;;;;;;;-146.24;73.80;47147.66;5029871;28;20315;-85
2024/01/12 10:21:40;;;;;;;19.33;8.53;;;;;;;-146.24;73.75;47107.38;5034798;28;20266;-85
2024/01/12 10:24:10;;;;;;;12.00;5.07;;;;;;;-146.24;71.22;47132.31;5051893;28;20325;-85
2024/01/12 10:26:38;;;;;;;14.40;6.73;;;;;;;-146.24;73.79;47159.16;5052485;28;20314;-85
2024/01/12 10:29:06;;;;;;;17.73;7.93;;;;;;;-146.24;74.18;47120.78;5052179;28;20227;-85
2024/01/12 10:31:41;;;;;;;9.13;4.80;;;;;;;-146.24;73.80;47128.47;5037902;28;20225;-85
2024/01/12 10:34:12;;;;;;;16.33;7.10;;;;;;;-146.24;75.19;47065.16;5050885;28;20234;-84
2024/01/12 10:36:41;;;;;;;13.83;7.33;;;;;;;-146.24;74.92;47122.72;5049002;28;20234;-85
2024/01/12 10:39:13;;;;;;;12.63;6.00;;;;;;;-146.24;73.38;47193.69;5031434;28;20219;-84
2024/01/12 10:41:42;;;;;;;14.17;8.50;;;;;;;-146.24;70.57;47084.34;5050049;28;20235;-85
2024/01/12 10:44:11;;;;;;;13.30;6.83;;;;;;;-146.24;67.90;47103.53;5049653;28;20253;-85
2024/01/12 10:46:47;;;;;;;16.80;8.23;;;;;;;-146.24;69.63;47115.03;5051861;28;20231;-85
2024/01/12 10:49:21;;;;;;;12.43;5.67;;;;;;;-146.24;67.31;47174.53;5043768;28;20238;-87
2024/01/12 10:52:07;;;;;;;16.10;9.03;;;;;;;-146.24;66.05;47049.81;5037887;28;20220;-85
2024/01/12 10:54:53;;;;;;;18.37;8.27;;;;;;;-146.24;65.92;47080.50;5051625;28;20231;-85
2024/01/12 10:57:26;;;;;;;16.07;7.60;;;;;;;-146.24;65.28;47082.41;5052795;28;20187;-85
2024/01/12 10:59:58;;;;;;;13.73;7.37;;;;;;;-146.24;65.08;47061.31;5053170;28;20277;-85
2024/01/12 11:02:33;;;;;;;20.23;7.90;;;;;;;-146.24;67.81;47067.06;5052222;28;20205;-85
2024/01/12 11:05:09;;;;;;;10.13;5.80;;;;;;;-146.24;68.05;47067.06;5053717;28;20214;-85
2024/01/12 11:07:44;;;;;;;23.27;9.67;;;;;;;-146.24;67.44;47161.09;5052238;28;20261;-85
2024/01/12 11:10:15;;;;;;;15.40;7.43;;;;;;;-146.24;70.07;47078.59;5052619;28;20210;-85
2024/01/12 11:12:43;;;;;;;14.93;7.40;;;;;;;-146.24;72.90;47138.06;5052561;28;20200;-85
2024/01/12 11:15:11;;;;;;;5.27;4.40;;;;;;;-146.24;75.19;47099.69;5052617;28;20200;-85
2024/01/12 11:17:42;;;;;;;11.87;6.97;;;;;;;-146.24;79.27;47122.72;5052153;28;20200;-85
2024/01/12 11:20:13;;;;;;;19.17;8.07;;;;;;;-146.24;78.36;47147.66;5056907;28;20207;-85
2024/01/12 11:22:45;;;;;;;19.57;8.43;;;;;;;-146.24;78.41;47116.97;5056730;28;20280;-85
2024/01/12 11:25:17;;;;;;;12.93;7.83;;;;;;;-146.24;78.22;47201.38;5056213;28;20226;-85
2024/01/12 11:27:49;;;;;;;21.20;7.50;;;;;;;-146.24;77.87;47143.81;5056390;28;20680;-85
2024/01/12 11:30:19;;;;;;;17.30;8.27;;;;;;;-146.24;78.65;47120.78;5056828;28;20588;-85
2024/01/12 11:32:49;;;;;;;10.23;5.30;;;;;;;-146.24;79.29;47059.41;5055607;28;20556;-85
2024/01/12 11:35:21;;;;;;;17.37;7.27;;;;;;;-146.24;82.20;47093.94;5055757;28;20290;-85
2024/01/12 11:38:01;;;;;;;16.93;8.33;;;;;;;-146.24;81.01;47151.50;5056813;28;20199;-85
2024/01/12 11:40:31;;;;;;;14.33;7.20;;;;;;;-146.24;79.61;47128.47;5056931;28;20203;-85
2024/01/12 11:43:04;;;;;;;16.13;8.43;;;;;;;-146.24;79.87;47228.25;5051022;28;20337;-85
2024/01/12 11:45:34;;;;;;;17.47;7.83;;;;;;;-146.24;81.66;47151.50;5037271;28;20203;-85
2024/01/12 11:48:03;;;;;;;17.43;6.43;;;;;;;-146.24;82.04;47243.59;5043590;28;20291;-84
2024/01/12 11:50:31;;;;;;;16.77;8.37;;;;;;;-146.24;83.82;47251.25;5051295;28;20247;-85
2024/01/12 11:53:03;;;;;;;13.77;7.03;;;;;;;-146.24;83.72;47178.34;5063289;28;20223;-84
2024/01/12 11:55:32;;;;;;;13.57;7.17;;;;;;;-146.24;82.64;47149.56;5069795;28;20255;-85
2024/01/12 11:58:12;;;;;;;13.37;7.97;;;;;;;-146.24;83.27;47228.25;5058133;28;20267;-84
2024/01/12 12:01:07;;;;;;;18.30;8.53;;;;;;;-146.24;86.97;47232.06;5061387;28;20210;-84
2024/01/12 12:03:42;;;;;;;18.60;8.00;;;;;;;-146.24;86.96;47197.53;5058431;28;20224;-84
2024/01/12 12:06:11;;;;;;;15.10;8.33;;;;;;;-146.24;88.62;47124.63;5059822;28;20183;-85
2024/01/12 12:08:41;;;;;;;15.30;7.80;;;;;;;-146.24;87.41;47220.56;5047428;28;20253;-85
2024/01/12 12:11:19;;;;;;;16.63;7.00;;;;;;;-146.24;87.11;47111.19;5048255;28;20222;-85
2024/01/12 12:13:50;;;;;;;24.60;8.00;;;;;;;-146.24;85.67;47197.53;5051491;28;20231;-84
2024/01/12 12:16:21;;;;;;;15.27;8.63;;;;;;;-146.24;85.54;47138.06;5046971;28;20200;-85
2024/01/12 12:18:52;;;;;;;15.70;5.80;;;;;;;-146.24;87.87;47159.16;5046731;28;20199;-85
2024/01/12 12:21:23;;;;;;;18.53;8.00;;;;;;;-146.24;87.01;47247.44;5044921;28;20196;-85
2024/01/12 12:24:03;;;;;;;21.23;8.60;;;;;;;-146.24;88.61;47186.03;5045801;28;20247;-85
2024/01/12 12:26:34;;;;;;;16.13;6.43;;;;;;;-146.24;86.26;47116.97;5047720;28;20184;-85
2024/01/12 12:29:08;;;;;;;26.07;7.10;;;;;;;-146.24;85.37;47107.38;5049371;28;20221;-84
2024/01/12 12:31:41;;;;;;;14.07;8.07;;;;;;;-146.24;87.06;47132.31;5064515;28;20209;-85
2024/01/12 12:34:11;;;;;;;14.00;7.80;;;;;;;-146.24;87.60;47115.03;5064728;28;20219;-85
2024/01/12 12:36:40;;;;;;;14.10;7.43;;;;;;;-146.24;87.47;47159.16;5064386;28;20290;-84
2024/01/12 12:39:11;;;;;;;14.83;7.97;;;;;;;-146.24;88.27;47093.94;5060714;28;20203;-84
2024/01/12 12:41:48;;;;;;;17.00;7.00;;;;;;;-146.24;87.59;47224.41;5046785;28;20286;-84
2024/01/12 12:44:18;;;;;;;21.07;8.70;;;;;;;-146.24;88.13;47247.44;5061507;28;20199;-85
2024/01/12 12:46:47;;;;;;;12.50;7.37;;;;;;;-146.24;89.56;47153.41;5065498;28;20210;-85
2024/01/12 12:49:17;;;;;;;15.03;7.03;;;;;;;-146.24;89.66;47228.25;5054809;28;20264;-84
2024/01/12 13:01:34;;;;;;;15.13;7.87;;;;;;;;;;5078334;28;20643;-85
2024/01/12 13:04:13;;;;;;;30.58;14.25;;;;;;;;;;5081588;28;20512;-86
2024/01/12 13:06:46;;;;;;;26.47;10.47;;;;;;;;;;5081409;28;20239;-84
2024/01/12 13:12:03;;;;;;;;;;;;;;;;;;;;;
2024/01/12 13:17:40;;;;;;;20.17;8.33;;;;;;;;;;5742635;22;20224;-86
2024/01/12 13:20:29;;;;;;;16.07;7.13;;;;;;;;;;5419003;23;20696;-84
2024/01/12 13:23:20;;;;;;;10.10;5.83;;;;;;;;;;5131970;28;20194;-84
2024/01/12 13:26:03;;;;;;;14.37;6.63;;;;;;;;;;5164850;22;20225;-85
2024/01/12 13:34:10;;;;;;;21.93;7.63;;;;;;;;;;5158628;23;20223;-84
2024/01/12 13:36:47;;;;;;;13.47;7.60;;;;;;;;;;5102219;28;20194;-84
2024/01/12 13:39:20;;;;;;;21.37;7.10;;;;;;;;;;5084232;28;20691;-84
2024/01/12 13:41:49;;;;;;;18.33;7.53;;;;;;;;;;5072830;28;20199;-84
2024/01/12 13:44:18;;;;;;;21.83;10.53;;;;;;;;;;5068216;28;20209;-84
2024/01/12 13:46:55;;;;;;;2.73;2.53;;;;;;;;;;5073603;28;20198;-85
2024/01/12 13:49:23;;;;;;;25.97;10.87;;;;;;;;;;5092639;28;20232;-85
2024/01/12 13:51:53;;;;;;;34.47;12.17;;;;;;;;;;5074476;28;20222;-84
2024/01/12 13:54:21;;;;;;;13.73;8.37;;;;;;;;;;5074086;28;20194;-85
2024/01/12 13:56:58;;;;;;;22.53;6.90;;;;;;;;;;5073540;28;20194;-86
2024/01/12 13:59:26;;;;;;;16.20;6.63;;;;;;;;;;5072339;28;20420;-86
2024/01/12 14:01:59;;;;;;;7.90;5.77;;;;;;;;;;5077957;28;20206;-83
2024/01/12 14:04:31;;;;;;;11.90;5.97;;;;;;;;;;5082614;28;20209;-84
2024/01/12 14:07:01;;;;;;;7.37;4.60;;;;;;;;;;5069632;28;20278;-84
2024/01/12 14:09:40;;;;;;;13.50;7.80;;;;;;;;;;5071998;28;20239;-84
2024/01/12 14:12:09;;;;;;;24.52;10.98;;;;;;;;;;5061535;28;20449;-84
2024/01/12 14:14:37;;;;;;;13.40;7.73;;;;;;;;;;5055300;28;20235;-83
2024/01/12 14:17:06;;;;;;;19.13;9.13;;;;;;;;;;5059759;28;20221;-84
2024/01/12 14:19:35;;;;;;;14.45;7.72;;;;;;;;;;5046411;28;20457;-85
2024/01/12 14:22:06;;;;;;;18.33;7.17;;;;;;;;;;5043651;28;20220;-85
2024/01/12 14:24:34;;;;;;;13.20;6.83;;;;;;;;;;5042207;28;20228;-85
2024/01/12 14:27:04;;;;;;;9.63;5.37;;;;;;;;;;5042941;28;20243;-85
2024/01/12 14:29:33;;;;;;;19.60;7.90;;;;;;;;;;5041463;28;20228;-84
2024/01/12 14:32:14;;;;;;;32.30;13.82;;;;;;;;;;5041871;28;20455;-84
2024/01/12 14:34:47;;;;;;;25.07;10.03;;;;;;;;;;5050810;28;20235;-84
2024/01/12 14:37:16;;;;;;;23.67;10.55;;;;;;;;;;5060760;28;20591;-84
2024/01/12 14:39:44;;;;;;;19.23;10.70;;;;;;;;;;5060836;28;20314;-84
2024/01/12 14:42:12;;;;;;;11.10;6.37;;;;;;;;;;5062031;28;20222;-84
2024/01/12 14:44:40;;;;;;;18.57;9.03;;;;;;;;;;5061824;28;20450;-85
2024/01/12 14:47:08;;;;;;;12.80;6.97;;;;;;;;;;5062211;28;20210;-85
2024/01/12 14:49:37;;;;;;;15.93;9.00;;;;;;;;;;5060276;28;20223;-86
2024/01/12 14:52:09;;;;;;;10.93;5.63;;;;;;;;;;5061040;28;20234;-83
2024/01/12 14:54:44;;;;;;;20.90;7.57;;;;;;;;;;5058107;28;20235;-84
2024/01/12 14:57:11;;;;;;;19.67;7.70;;;;;;;;;;5060672;28;20583;-85
2024/01/12 14:59:39;;;;;;;11.93;6.97;;;;;;;;;;5042382;28;20215;-85
2024/01/12 15:02:08;;;;;;;21.83;8.50;;;;;;;;;;5058991;28;20207;-84
2024/01/12 15:04:38;;;;;;;14.10;6.80;;;;;;;;;;5062404;28;20230;-85
2024/01/12 15:07:25;;;;;;;10.67;8.17;;;;;;;-146.24;100.00;47216.72;5140606;27;20559;-84
2024/01/12 15:10:03;;;;;;;17.20;8.87;;;;;;;-146.24;100.00;47149.56;5120191;27;20248;-84
2024/01/12 15:13:14;;;;;;;31.57;10.50;;;;;;;-146.24;100.00;47166.84;5120399;28;20237;-85
2024/01/12 15:15:46;;;;;;;7.60;4.97;;;;;;;-146.24;100.00;47174.53;5118602;28;20709;-86
2024/01/12 15:18:22;;;;;;;14.67;8.00;;;;;;;-146.24;100.00;47191.78;5118471;28;20312;-84
2024/01/12 15:21:11;;;;;;;16.97;8.57;;;;;;;-146.24;100.00;47195.63;5117155;28;20225;-84
2024/01/12 15:23:51;;;;;;;24.03;7.40;;;;;;;-146.24;100.00;47203.28;5119109;28;20472;-84
2024/01/12 15:26:35;;;;;;;12.53;6.97;;;;;;;-146.24;100.00;47216.72;5119173;28;20241;-84
2024/01/12 15:29:18;;;;;;;15.83;8.23;;;;;;;-146.24;100.00;47224.41;5117592;28;20225;-84
2024/01/12 15:31:57;;;;;;;13.93;8.60;;;;;;;-146.24;100.00;47249.34;5119259;28;20272;-84
2024/01/12 15:34:45;;;;;;;13.47;5.80;;;;;;;-146.24;100.00;47209.06;5121935;28;20221;-83
2024/01/12 15:37:19;;;;;;;24.20;8.20;;;;;;;-146.24;100.00;47301.16;5128553;28;20241;-84
2024/01/12 15:39:52;;;;;;;14.97;7.67;;;;;;;-146.24;100.00;47153.41;5132342;28;20232;-85
2024/01/12 15:42:33;;;;;;;27.90;8.90;;;;;;;-146.24;100.00;47214.81;5120942;28;20387;-85
2024/01/12 15:45:04;;;;;;;11.13;6.40;;;;;;;-146.24;100.00;47239.75;5114851;28;20279;-86
2024/01/12 15:47:33;;;;;;;17.17;6.97;;;;;;;-146.24;100.00;47163.00;5116907;28;20221;-84
2024/01/12 15:50:06;;;;;;;18.20;8.73;;;;;;;-146.24;100.00;47178.34;5117426;28;20598;-85
2024/01/12 15:52:36;;;;;;;52.63;20.08;;;;;;;-146.24;100.00;47212.88;5110197;28;20986;-83
2024/01/12 15:55:12;;;;;;;26.40;14.00;;;;;;;-146.24;100.00;47270.44;5108809;28;20277;-85
2024/01/12 15:57:52;;;;;;;21.80;12.00;;;;;;;-146.25;100.00;57403.91;5107918;28;20239;-86
2024/01/12 16:00:30;;;;;;;31.00;10.60;;;;;;;-146.25;100.00;57403.91;5109266;28;20221;-85
2024/01/12 16:06:14;;;;;;;11.07;6.30;;;;;;;-146.25;100.00;57403.91;5098062;28;20245;-86
2024/01/12 16:09:35;;;;;;;14.83;9.40;;;;;;;-146.25;100.00;57403.91;5118476;28;20209;-84
2024/01/12 16:12:15;;;;;;;19.10;8.80;;;;;;;-146.25;100.00;57403.91;5117970;28;20212;-85
2024/01/12 16:15:01;;;;;;;7.77;6.40;;;;;;;-146.25;100.00;57403.91;5119602;27;20209;-85
2024/01/12 16:17:47;;;;;;;30.83;9.93;;;;;;;-146.25;100.00;57403.91;5111952;28;20273;-85
2024/01/12 16:20:48;;;;;;;9.93;7.60;;;;;;;-146.25;100.00;57403.91;5096981;28;20217;-84
2024/01/12 16:26:49;;;;;;;10.37;5.57;;;;;;;-146.25;100.00;57403.91;5066682;28;20319;-84
2024/01/12 16:29:34;;;;;;;17.47;10.37;;;;;;;-146.25;100.00;57403.91;5075805;28;20710;-84
2024/01/12 16:32:36;;;;;;;21.50;8.33;;;;;;;-146.25;100.00;57403.91;5074761;28;20741;-84
2024/01/12 16:38:48;;;;;;;21.53;10.90;;;;;;;-146.25;100.00;57403.91;5069003;28;20624;-84
2024/01/12 16:41:26;;;;;;;17.07;7.87;;;;;;;-146.25;100.00;57403.91;5094690;28;20721;-84
2024/01/12 16:47:13;;;;;;;22.80;12.63;;;;;;;-146.25;100.00;57403.91;5074336;28;20229;-84
2024/01/12 16:49:53;;;;;;;22.77;11.37;;;;;;;-146.25;100.00;57403.91;5078419;28;20244;-85
2024/01/12 16:55:58;;;;;;;11.10;7.17;;;;;;;-146.25;100.00;57403.91;5087446;28;20257;-85
2024/01/12 16:58:31;;;;;;;18.83;6.60;;;;;;;-146.25;100.00;57403.91;5087145;28;20258;-84
2024/01/12 17:01:03;;;;;;;18.17;11.03;;;;;;;-146.25;100.00;57403.91;5083096;28;20640;-85
2024/01/12 17:03:50;;;;;;;19.07;6.53;;;;;;;-146.25;100.00;57403.91;5084631;28;20213;-85
2024/01/12 17:06:28;;;;;;;14.57;7.40;;;;;;;-146.25;100.00;57403.91;5093475;28;20234;-83
2024/01/12 17:09:16;;;;;;;14.60;6.70;;;;;;;-146.25;100.00;57403.91;5099654;28;20220;-84
2024/01/12 17:12:00;;;;;;;13.50;6.07;;;;;;;-146.25;100.00;57403.91;5092153;28;20661;-84
2024/01/12 17:14:30;;;;;;;16.30;4.10;;;;;;;-146.25;100.00;57403.91;5092510;28;20198;-84
2024/01/12 17:17:08;;;;;;;;;;;;;;;;;;;;;
2024/01/12 17:24:10;;;;;;;11.27;5.57;;;;;;;-146.25;100.00;57403.91;5086526;28;20257;-85
2024/01/12 17:27:35;;;;;;;;;;;;;;;;;;;;;
2024/01/12 17:31:03;;;;;;;;;;;;;;;;;;;;;
2024/01/12 17:33:36;;;;;;;10.73;8.70;;;;;;;-146.25;100.00;57403.91;5099676;28;20640;-84
2024/01/12 17:36:10;;;;;;;8.20;5.57;;;;;;;-146.25;100.00;57403.91;5096451;28;20190;-84
2024/01/12 17:38:42;;;;;;;10.93;6.13;;;;;;;-146.25;100.00;57403.91;5097200;28;20190;-84
2024/01/12 17:41:15;;;;;;;10.97;5.83;;;;;;;-146.25;100.00;57403.91;5087863;28;20199;-84
2024/01/12 17:43:47;;;;;;;12.60;7.53;;;;;;;-146.25;100.00;57403.91;5086449;28;20229;-85
2024/01/12 17:46:16;;;;;;;16.43;10.13;;;;;;;-146.25;100.00;57403.91;5093691;28;20659;-85
2024/01/12 17:48:46;;;;;;;11.63;5.50;;;;;;;-146.25;100.00;57403.91;5086568;28;20218;-85